sensor_id;sensor_type;location;lat;lon;timestamp;temperature;humidity
52669;DHT22;59898;52.786;6.892;2023-10-31T00:01:26;12.10;99.10
52669;DHT22;59898;52.786;6.892;2023-10-31T00:04:47;12.20;99.00
52669;DHT22;59898;52.786;6.892;2023-10-31T00:08:07;12.20;98.80
52669;DHT22;59898;52.786;6.892;2023-10-31T00:11:28;12.10;99.50
52669;DHT22;59898;52.786;6.892;2023-10-31T00:14:48;12.10;99.50
52669;DHT22;59898;52.786;6.892;2023-10-31T00:18:09;12.20;99.30
52669;DHT22;59898;52.786;6.892;2023-10-31T00:21:30;12.20;99.40
52669;DHT22;59898;52.786;6.892;2023-10-31T00:24:50;12.20;99.10
52669;DHT22;59898;52.786;6.892;2023-10-31T00:28:11;12.20;99.20
52669;DHT22;59898;52.786;6.892;2023-10-31T00:31:31;12.20;99.40
52669;DHT22;59898;52.786;6.892;2023-10-31T00:34:55;12.20;99.70
52669;DHT22;59898;52.786;6.892;2023-10-31T00:38:15;12.20;99.80
52669;DHT22;59898;52.786;6.892;2023-10-31T00:41:36;12.20;99.80
52669;DHT22;59898;52.786;6.892;2023-10-31T00:44:56;12.20;100.00
52669;DHT22;59898;52.786;6.892;2023-10-31T00:48:17;12.20;100.00
52669;DHT22;59898;52.786;6.892;2023-10-31T00:51:37;12.20;99.70
52669;DHT22;59898;52.786;6.892;2023-10-31T00:54:58;12.20;99.80
52669;DHT22;59898;52.786;6.892;2023-10-31T00:58:18;12.30;99.80
52669;DHT22;59898;52.786;6.892;2023-10-31T01:01:39;12.30;99.80
52669;DHT22;59898;52.786;6.892;2023-10-31T01:04:59;12.30;99.80
52669;DHT22;59898;52.786;6.892;2023-10-31T01:08:20;12.30;100.00
52669;DHT22;59898;52.786;6.892;2023-10-31T01:11:41;12.30;100.00
52669;DHT22;59898;52.786;6.892;2023-10-31T01:15:01;12.30;100.00
52669;DHT22;59898;52.786;6.892;2023-10-31T01:18:22;12.30;100.00
52669;DHT22;59898;52.786;6.892;2023-10-31T01:21:43;12.30;100.00
52669;DHT22;59898;52.786;6.892;2023-10-31T01:25:04;12.30;99.80
52669;DHT22;59898;52.786;6.892;2023-10-31T01:28:24;12.30;100.00
52669;DHT22;59898;52.786;6.892;2023-10-31T01:31:45;12.40;99.80
52669;DHT22;59898;52.786;6.892;2023-10-31T01:35:06;12.40;99.80
52669;DHT22;59898;52.786;6.892;2023-10-31T01:38:27;12.40;99.70
52669;DHT22;59898;52.786;6.892;2023-10-31T01:41:47;12.50;100.00
52669;DHT22;59898;52.786;6.892;2023-10-31T01:45:09;12.50;99.50
52669;DHT22;59898;52.786;6.892;2023-10-31T01:48:30;12.50;99.50
52669;DHT22;59898;52.786;6.892;2023-10-31T01:51:52;12.50;99.50
52669;DHT22;59898;52.786;6.892;2023-10-31T01:55:13;12.50;99.50
52669;DHT22;59898;52.786;6.892;2023-10-31T01:58:36;12.50;99.50
52669;DHT22;59898;52.786;6.892;2023-10-31T02:01:57;12.50;99.10
52669;DHT22;59898;52.786;6.892;2023-10-31T02:05:17;12.40;98.10
52669;DHT22;59898;52.786;6.892;2023-10-31T02:08:38;12.20;97.80
52669;DHT22;59898;52.786;6.892;2023-10-31T02:11:59;11.90;97.70
52669;DHT22;59898;52.786;6.892;2023-10-31T02:15:19;11.80;97.70
52669;DHT22;59898;52.786;6.892;2023-10-31T02:18:40;11.70;97.60
52669;DHT22;59898;52.786;6.892;2023-10-31T02:22:01;11.50;97.70
52669;DHT22;59898;52.786;6.892;2023-10-31T02:25:22;11.50;97.70
52669;DHT22;59898;52.786;6.892;2023-10-31T02:28:42;11.40;97.50
52669;DHT22;59898;52.786;6.892;2023-10-31T02:32:03;11.40;97.50
52669;DHT22;59898;52.786;6.892;2023-10-31T02:35:23;11.30;97.30
52669;DHT22;59898;52.786;6.892;2023-10-31T02:38:44;11.30;97.10
52669;DHT22;59898;52.786;6.892;2023-10-31T02:42:06;11.20;97.10
52669;DHT22;59898;52.786;6.892;2023-10-31T02:45:26;11.20;96.90
52669;DHT22;59898;52.786;6.892;2023-10-31T02:48:47;11.10;96.70
52669;DHT22;59898;52.786;6.892;2023-10-31T02:52:07;11.10;96.70
52669;DHT22;59898;52.786;6.892;2023-10-31T02:55:28;11.00;96.70
52669;DHT22;59898;52.786;6.892;2023-10-31T02:58:48;10.90;96.60
52669;DHT22;59898;52.786;6.892;2023-10-31T03:02:09;10.90;96.80
52669;DHT22;59898;52.786;6.892;2023-10-31T03:05:31;10.80;96.90
52669;DHT22;59898;52.786;6.892;2023-10-31T03:08:52;10.80;96.90
52669;DHT22;59898;52.786;6.892;2023-10-31T03:12:13;10.80;96.90
52669;DHT22;59898;52.786;6.892;2023-10-31T03:15:33;10.70;96.90
52669;DHT22;59898;52.786;6.892;2023-10-31T03:18:54;10.70;96.90
52669;DHT22;59898;52.786;6.892;2023-10-31T03:22:14;10.70;97.10
52669;DHT22;59898;52.786;6.892;2023-10-31T03:25:35;10.60;97.30
52669;DHT22;59898;52.786;6.892;2023-10-31T03:28:55;10.60;97.40
52669;DHT22;59898;52.786;6.892;2023-10-31T03:32:17;10.60;97.60
52669;DHT22;59898;52.786;6.892;2023-10-31T03:35:38;10.60;97.80
52669;DHT22;59898;52.786;6.892;2023-10-31T03:38:58;10.50;98.00
52669;DHT22;59898;52.786;6.892;2023-10-31T03:42:19;10.50;98.00
52669;DHT22;59898;52.786;6.892;2023-10-31T03:45:40;10.40;98.30
52669;DHT22;59898;52.786;6.892;2023-10-31T03:49:01;10.40;98.60
52669;DHT22;59898;52.786;6.892;2023-10-31T03:52:21;10.30;98.60
52669;DHT22;59898;52.786;6.892;2023-10-31T03:55:42;10.30;98.70
52669;DHT22;59898;52.786;6.892;2023-10-31T03:59:03;10.30;98.70
52669;DHT22;59898;52.786;6.892;2023-10-31T04:02:23;10.30;98.70
52669;DHT22;59898;52.786;6.892;2023-10-31T04:05:44;10.30;98.80
52669;DHT22;59898;52.786;6.892;2023-10-31T04:09:04;10.30;98.70
52669;DHT22;59898;52.786;6.892;2023-10-31T04:12:25;10.30;98.80
52669;DHT22;59898;52.786;6.892;2023-10-31T04:15:46;10.30;99.00
52669;DHT22;59898;52.786;6.892;2023-10-31T04:19:06;10.30;99.00
52669;DHT22;59898;52.786;6.892;2023-10-31T04:22:27;10.30;99.10
52669;DHT22;59898;52.786;6.892;2023-10-31T04:25:47;10.30;99.30
52669;DHT22;59898;52.786;6.892;2023-10-31T04:29:08;10.40;99.30
52669;DHT22;59898;52.786;6.892;2023-10-31T04:32:29;10.40;99.60
52669;DHT22;59898;52.786;6.892;2023-10-31T04:35:49;10.40;99.60
52669;DHT22;59898;52.786;6.892;2023-10-31T04:39:10;10.40;99.60
52669;DHT22;59898;52.786;6.892;2023-10-31T04:42:32;10.40;99.20
52669;DHT22;59898;52.786;6.892;2023-10-31T04:45:53;10.40;99.10
52669;DHT22;59898;52.786;6.892;2023-10-31T04:49:14;10.40;99.40
52669;DHT22;59898;52.786;6.892;2023-10-31T04:52:35;10.40;99.30
52669;DHT22;59898;52.786;6.892;2023-10-31T04:55:56;10.40;99.70
52669;DHT22;59898;52.786;6.892;2023-10-31T04:59:16;10.30;99.60
52669;DHT22;59898;52.786;6.892;2023-10-31T05:02:37;10.40;99.70
52669;DHT22;59898;52.786;6.892;2023-10-31T05:05:58;10.40;99.50
52669;DHT22;59898;52.786;6.892;2023-10-31T05:09:18;10.40;99.70
52669;DHT22;59898;52.786;6.892;2023-10-31T05:12:40;10.40;99.50
52669;DHT22;59898;52.786;6.892;2023-10-31T05:16:01;10.40;99.40
52669;DHT22;59898;52.786;6.892;2023-10-31T05:19:22;10.40;99.50
52669;DHT22;59898;52.786;6.892;2023-10-31T05:22:42;10.40;99.40
52669;DHT22;59898;52.786;6.892;2023-10-31T05:26:05;10.40;99.40
52669;DHT22;59898;52.786;6.892;2023-10-31T05:29:26;10.40;99.30
52669;DHT22;59898;52.786;6.892;2023-10-31T05:32:46;10.30;99.40
52669;DHT22;59898;52.786;6.892;2023-10-31T05:36:26;10.30;99.30
52669;DHT22;59898;52.786;6.892;2023-10-31T05:39:48;10.30;99.20
52669;DHT22;59898;52.786;6.892;2023-10-31T05:43:08;10.30;99.20
52669;DHT22;59898;52.786;6.892;2023-10-31T05:46:29;10.30;99.40
52669;DHT22;59898;52.786;6.892;2023-10-31T05:49:50;10.30;99.20
52669;DHT22;59898;52.786;6.892;2023-10-31T05:53:10;10.30;99.40
52669;DHT22;59898;52.786;6.892;2023-10-31T05:56:31;10.30;99.30
52669;DHT22;59898;52.786;6.892;2023-10-31T05:59:52;10.30;99.30
52669;DHT22;59898;52.786;6.892;2023-10-31T06:03:12;10.30;99.40
52669;DHT22;59898;52.786;6.892;2023-10-31T06:06:36;10.30;99.60
52669;DHT22;59898;52.786;6.892;2023-10-31T06:09:57;10.30;99.60
52669;DHT22;59898;52.786;6.892;2023-10-31T06:13:17;10.30;99.50
52669;DHT22;59898;52.786;6.892;2023-10-31T06:16:41;10.30;99.50
52669;DHT22;59898;52.786;6.892;2023-10-31T06:20:02;10.30;99.60
52669;DHT22;59898;52.786;6.892;2023-10-31T06:23:23;10.30;99.60
52669;DHT22;59898;52.786;6.892;2023-10-31T06:26:43;10.30;99.50
52669;DHT22;59898;52.786;6.892;2023-10-31T06:30:04;10.30;99.40
52669;DHT22;59898;52.786;6.892;2023-10-31T06:33:25;10.30;99.40
52669;DHT22;59898;52.786;6.892;2023-10-31T06:36:46;10.30;99.50
52669;DHT22;59898;52.786;6.892;2023-10-31T06:40:07;10.30;99.40
52669;DHT22;59898;52.786;6.892;2023-10-31T06:43:27;10.20;99.50
52669;DHT22;59898;52.786;6.892;2023-10-31T06:46:48;10.30;99.50
52669;DHT22;59898;52.786;6.892;2023-10-31T06:50:09;10.20;99.50
52669;DHT22;59898;52.786;6.892;2023-10-31T06:53:30;10.20;99.50
52669;DHT22;59898;52.786;6.892;2023-10-31T06:56:50;10.20;99.40
52669;DHT22;59898;52.786;6.892;2023-10-31T07:00:11;10.20;99.30
52669;DHT22;59898;52.786;6.892;2023-10-31T07:03:32;10.20;99.40
52669;DHT22;59898;52.786;6.892;2023-10-31T07:06:53;10.20;99.30
52669;DHT22;59898;52.786;6.892;2023-10-31T07:10:17;10.20;99.30
52669;DHT22;59898;52.786;6.892;2023-10-31T07:13:38;10.20;99.30
52669;DHT22;59898;52.786;6.892;2023-10-31T07:16:58;10.20;99.60
52669;DHT22;59898;52.786;6.892;2023-10-31T07:20:19;10.20;99.40
52669;DHT22;59898;52.786;6.892;2023-10-31T07:23:39;10.20;99.30
52669;DHT22;59898;52.786;6.892;2023-10-31T07:27:00;10.20;99.30
52669;DHT22;59898;52.786;6.892;2023-10-31T07:30:20;10.20;99.30
52669;DHT22;59898;52.786;6.892;2023-10-31T07:33:43;10.30;99.50
52669;DHT22;59898;52.786;6.892;2023-10-31T07:37:03;10.30;99.60
52669;DHT22;59898;52.786;6.892;2023-10-31T07:40:24;10.30;99.70
52669;DHT22;59898;52.786;6.892;2023-10-31T07:43:45;10.30;99.60
52669;DHT22;59898;52.786;6.892;2023-10-31T07:47:05;10.30;99.60
52669;DHT22;59898;52.786;6.892;2023-10-31T07:50:26;10.40;99.80
52669;DHT22;59898;52.786;6.892;2023-10-31T07:53:47;10.40;99.90
52669;DHT22;59898;52.786;6.892;2023-10-31T07:57:07;10.40;99.90
52669;DHT22;59898;52.786;6.892;2023-10-31T08:00:28;10.40;100.00
52669;DHT22;59898;52.786;6.892;2023-10-31T08:03:48;10.50;99.90
52669;DHT22;59898;52.786;6.892;2023-10-31T08:07:09;10.50;100.00
52669;DHT22;59898;52.786;6.892;2023-10-31T08:10:29;10.60;100.00
52669;DHT22;59898;52.786;6.892;2023-10-31T08:13:50;10.60;100.00
52669;DHT22;59898;52.786;6.892;2023-10-31T08:17:10;10.60;100.00
52669;DHT22;59898;52.786;6.892;2023-10-31T08:20:31;10.70;100.00
52669;DHT22;59898;52.786;6.892;2023-10-31T08:23:54;10.70;100.00
52669;DHT22;59898;52.786;6.892;2023-10-31T08:27:15;10.70;100.00
52669;DHT22;59898;52.786;6.892;2023-10-31T08:30:35;10.70;100.00
52669;DHT22;59898;52.786;6.892;2023-10-31T08:33:56;10.80;99.90
52669;DHT22;59898;52.786;6.892;2023-10-31T08:37:17;10.80;100.00
52669;DHT22;59898;52.786;6.892;2023-10-31T08:40:37;10.90;100.00
52669;DHT22;59898;52.786;6.892;2023-10-31T08:43:58;10.90;99.90
52669;DHT22;59898;52.786;6.892;2023-10-31T08:47:20;11.00;99.80
52669;DHT22;59898;52.786;6.892;2023-10-31T08:50:40;11.10;99.60
52669;DHT22;59898;52.786;6.892;2023-10-31T08:54:01;11.30;99.80
52669;DHT22;59898;52.786;6.892;2023-10-31T08:57:22;11.70;99.00
52669;DHT22;59898;52.786;6.892;2023-10-31T09:00:42;11.80;97.70
52669;DHT22;59898;52.786;6.892;2023-10-31T09:04:03;11.90;97.10
52669;DHT22;59898;52.786;6.892;2023-10-31T09:07:24;12.10;96.50
52669;DHT22;59898;52.786;6.892;2023-10-31T09:10:44;12.40;96.00
52669;DHT22;59898;52.786;6.892;2023-10-31T09:14:06;12.70;94.50
52669;DHT22;59898;52.786;6.892;2023-10-31T09:17:27;12.70;94.00
52669;DHT22;59898;52.786;6.892;2023-10-31T09:20:47;12.60;93.60
52669;DHT22;59898;52.786;6.892;2023-10-31T09:24:09;12.60;94.10
52669;DHT22;59898;52.786;6.892;2023-10-31T09:27:29;12.70;93.20
52669;DHT22;59898;52.786;6.892;2023-10-31T09:30:50;12.80;92.50
52669;DHT22;59898;52.786;6.892;2023-10-31T09:34:11;12.90;91.60
52669;DHT22;59898;52.786;6.892;2023-10-31T09:37:31;13.30;90.30
52669;DHT22;59898;52.786;6.892;2023-10-31T09:40:52;13.90;88.00
52669;DHT22;59898;52.786;6.892;2023-10-31T09:44:12;14.00;87.20
52669;DHT22;59898;52.786;6.892;2023-10-31T09:47:33;13.70;87.60
52669;DHT22;59898;52.786;6.892;2023-10-31T09:50:53;13.70;87.20
52669;DHT22;59898;52.786;6.892;2023-10-31T09:54:16;13.70;86.80
52669;DHT22;59898;52.786;6.892;2023-10-31T09:57:37;13.60;87.30
52669;DHT22;59898;52.786;6.892;2023-10-31T10:00:58;13.50;88.00
52669;DHT22;59898;52.786;6.892;2023-10-31T10:04:18;13.50;87.60
52669;DHT22;59898;52.786;6.892;2023-10-31T10:07:41;13.50;87.70
52669;DHT22;59898;52.786;6.892;2023-10-31T10:11:04;13.40;88.20
52669;DHT22;59898;52.786;6.892;2023-10-31T10:14:26;13.40;88.40
52669;DHT22;59898;52.786;6.892;2023-10-31T10:17:49;13.30;89.20
52669;DHT22;59898;52.786;6.892;2023-10-31T10:21:10;13.20;89.60
52669;DHT22;59898;52.786;6.892;2023-10-31T10:24:31;13.00;90.40
52669;DHT22;59898;52.786;6.892;2023-10-31T10:27:51;12.90;91.00
52669;DHT22;59898;52.786;6.892;2023-10-31T10:31:14;12.70;91.30
52669;DHT22;59898;52.786;6.892;2023-10-31T10:34:35;12.60;92.00
52669;DHT22;59898;52.786;6.892;2023-10-31T10:37:56;12.50;92.40
52669;DHT22;59898;52.786;6.892;2023-10-31T10:41:19;12.40;93.10
52669;DHT22;59898;52.786;6.892;2023-10-31T10:44:44;12.40;93.50
52669;DHT22;59898;52.786;6.892;2023-10-31T10:48:05;12.30;93.90
52669;DHT22;59898;52.786;6.892;2023-10-31T10:51:45;12.20;94.50
52669;DHT22;59898;52.786;6.892;2023-10-31T10:55:13;12.20;94.60
52669;DHT22;59898;52.786;6.892;2023-10-31T10:58:56;12.20;94.70
52669;DHT22;59898;52.786;6.892;2023-10-31T11:02:22;12.20;94.80
52669;DHT22;59898;52.786;6.892;2023-10-31T11:05:43;12.20;94.70
52669;DHT22;59898;52.786;6.892;2023-10-31T11:09:05;12.20;94.80
52669;DHT22;59898;52.786;6.892;2023-10-31T11:12:26;12.20;94.90
52669;DHT22;59898;52.786;6.892;2023-10-31T11:15:48;12.20;94.70
52669;DHT22;59898;52.786;6.892;2023-10-31T11:19:11;12.30;94.60
52669;DHT22;59898;52.786;6.892;2023-10-31T11:22:42;12.20;94.30
52669;DHT22;59898;52.786;6.892;2023-10-31T11:26:07;12.30;94.10
52669;DHT22;59898;52.786;6.892;2023-10-31T11:29:30;12.40;94.00
52669;DHT22;59898;52.786;6.892;2023-10-31T11:32:52;12.50;93.60
52669;DHT22;59898;52.786;6.892;2023-10-31T11:36:12;12.50;93.40
52669;DHT22;59898;52.786;6.892;2023-10-31T11:39:33;12.60;93.30
52669;DHT22;59898;52.786;6.892;2023-10-31T11:42:57;12.60;92.90
52669;DHT22;59898;52.786;6.892;2023-10-31T11:46:19;12.60;92.70
52669;DHT22;59898;52.786;6.892;2023-10-31T11:49:48;12.60;92.30
52669;DHT22;59898;52.786;6.892;2023-10-31T11:53:13;12.60;92.30
52669;DHT22;59898;52.786;6.892;2023-10-31T11:56:34;12.60;92.20
52669;DHT22;59898;52.786;6.892;2023-10-31T11:59:54;12.60;92.10
52669;DHT22;59898;52.786;6.892;2023-10-31T12:03:16;12.60;92.10
52669;DHT22;59898;52.786;6.892;2023-10-31T12:06:37;12.60;92.20
52669;DHT22;59898;52.786;6.892;2023-10-31T12:09:58;12.50;92.60
52669;DHT22;59898;52.786;6.892;2023-10-31T12:13:18;12.40;92.80
52669;DHT22;59898;52.786;6.892;2023-10-31T12:16:39;12.30;93.10
52669;DHT22;59898;52.786;6.892;2023-10-31T12:20:07;12.20;93.20
52669;DHT22;59898;52.786;6.892;2023-10-31T12:23:28;12.30;93.50
52669;DHT22;59898;52.786;6.892;2023-10-31T12:26:49;12.30;93.50
52669;DHT22;59898;52.786;6.892;2023-10-31T12:30:25;12.30;93.40
52669;DHT22;59898;52.786;6.892;2023-10-31T12:33:45;12.30;93.60
52669;DHT22;59898;52.786;6.892;2023-10-31T12:37:06;12.40;93.50
52669;DHT22;59898;52.786;6.892;2023-10-31T12:40:27;12.50;93.20
52669;DHT22;59898;52.786;6.892;2023-10-31T12:43:47;12.50;92.90
52669;DHT22;59898;52.786;6.892;2023-10-31T12:47:08;12.60;92.80
52669;DHT22;59898;52.786;6.892;2023-10-31T12:50:29;12.60;92.60
52669;DHT22;59898;52.786;6.892;2023-10-31T12:53:52;12.50;92.40
52669;DHT22;59898;52.786;6.892;2023-10-31T12:57:12;12.50;92.30
52669;DHT22;59898;52.786;6.892;2023-10-31T13:00:34;12.50;92.10
52669;DHT22;59898;52.786;6.892;2023-10-31T13:03:55;12.40;92.10
52669;DHT22;59898;52.786;6.892;2023-10-31T13:07:15;12.50;92.20
52669;DHT22;59898;52.786;6.892;2023-10-31T13:10:46;12.50;92.00
52669;DHT22;59898;52.786;6.892;2023-10-31T13:14:07;12.40;92.00
52669;DHT22;59898;52.786;6.892;2023-10-31T13:17:27;12.40;92.00
52669;DHT22;59898;52.786;6.892;2023-10-31T13:20:48;12.30;92.10
52669;DHT22;59898;52.786;6.892;2023-10-31T13:24:09;12.20;92.40
52669;DHT22;59898;52.786;6.892;2023-10-31T13:27:30;12.30;92.60
52669;DHT22;59898;52.786;6.892;2023-10-31T13:30:51;12.30;92.60
52669;DHT22;59898;52.786;6.892;2023-10-31T13:34:11;12.40;92.60
52669;DHT22;59898;52.786;6.892;2023-10-31T13:37:32;12.40;92.50
52669;DHT22;59898;52.786;6.892;2023-10-31T13:40:53;12.40;92.40
52669;DHT22;59898;52.786;6.892;2023-10-31T13:44:13;12.40;92.40
52669;DHT22;59898;52.786;6.892;2023-10-31T13:47:34;12.50;92.30
52669;DHT22;59898;52.786;6.892;2023-10-31T13:50:55;12.50;92.20
52669;DHT22;59898;52.786;6.892;2023-10-31T13:54:16;12.50;92.20
52669;DHT22;59898;52.786;6.892;2023-10-31T13:57:36;12.50;92.20
52669;DHT22;59898;52.786;6.892;2023-10-31T14:00:57;12.50;92.10
52669;DHT22;59898;52.786;6.892;2023-10-31T14:04:19;12.50;92.20
52669;DHT22;59898;52.786;6.892;2023-10-31T14:07:39;12.50;92.10
52669;DHT22;59898;52.786;6.892;2023-10-31T14:11:00;12.50;92.10
52669;DHT22;59898;52.786;6.892;2023-10-31T14:14:23;12.60;92.20
52669;DHT22;59898;52.786;6.892;2023-10-31T14:17:43;12.70;92.00
52669;DHT22;59898;52.786;6.892;2023-10-31T14:21:04;12.70;92.00
52669;DHT22;59898;52.786;6.892;2023-10-31T14:24:25;12.80;91.60
52669;DHT22;59898;52.786;6.892;2023-10-31T14:27:46;12.90;90.90
52669;DHT22;59898;52.786;6.892;2023-10-31T14:31:06;12.90;90.60
52669;DHT22;59898;52.786;6.892;2023-10-31T14:34:27;12.90;90.20
52669;DHT22;59898;52.786;6.892;2023-10-31T14:37:47;13.00;90.20
52669;DHT22;59898;52.786;6.892;2023-10-31T14:41:08;13.10;89.90
52669;DHT22;59898;52.786;6.892;2023-10-31T14:44:29;13.10;89.60
52669;DHT22;59898;52.786;6.892;2023-10-31T14:47:49;13.10;89.40
52669;DHT22;59898;52.786;6.892;2023-10-31T14:51:12;13.10;89.30
52669;DHT22;59898;52.786;6.892;2023-10-31T14:54:32;13.10;89.20
52669;DHT22;59898;52.786;6.892;2023-10-31T14:57:54;13.20;89.10
52669;DHT22;59898;52.786;6.892;2023-10-31T15:01:15;13.20;89.00
52669;DHT22;59898;52.786;6.892;2023-10-31T15:04:36;13.20;89.00
52669;DHT22;59898;52.786;6.892;2023-10-31T15:07:57;13.20;88.70
52669;DHT22;59898;52.786;6.892;2023-10-31T15:11:18;13.20;88.70
52669;DHT22;59898;52.786;6.892;2023-10-31T15:14:38;13.10;88.60
52669;DHT22;59898;52.786;6.892;2023-10-31T15:17:59;13.00;88.90
52669;DHT22;59898;52.786;6.892;2023-10-31T15:21:21;13.00;89.10
52669;DHT22;59898;52.786;6.892;2023-10-31T15:24:42;12.90;89.20
52669;DHT22;59898;52.786;6.892;2023-10-31T15:28:02;12.80;89.40
52669;DHT22;59898;52.786;6.892;2023-10-31T15:31:23;12.70;89.60
52669;DHT22;59898;52.786;6.892;2023-10-31T15:34:44;12.70;89.80
52669;DHT22;59898;52.786;6.892;2023-10-31T15:38:05;12.60;89.70
52669;DHT22;59898;52.786;6.892;2023-10-31T15:41:25;12.60;89.80
52669;DHT22;59898;52.786;6.892;2023-10-31T15:44:46;12.50;89.80
52669;DHT22;59898;52.786;6.892;2023-10-31T15:48:07;12.40;90.00
52669;DHT22;59898;52.786;6.892;2023-10-31T15:51:30;12.40;89.90
52669;DHT22;59898;52.786;6.892;2023-10-31T15:54:52;12.30;89.70
52669;DHT22;59898;52.786;6.892;2023-10-31T15:58:13;12.20;89.90
52669;DHT22;59898;52.786;6.892;2023-10-31T16:01:33;12.20;90.10
52669;DHT22;59898;52.786;6.892;2023-10-31T16:04:55;12.20;90.20
52669;DHT22;59898;52.786;6.892;2023-10-31T16:08:16;12.10;90.20
52669;DHT22;59898;52.786;6.892;2023-10-31T16:11:37;12.10;90.40
52669;DHT22;59898;52.786;6.892;2023-10-31T16:14:58;12.10;90.70
52669;DHT22;59898;52.786;6.892;2023-10-31T16:18:18;12.00;90.80
52669;DHT22;59898;52.786;6.892;2023-10-31T16:21:39;12.00;90.80
52669;DHT22;59898;52.786;6.892;2023-10-31T16:25:00;12.00;90.80
52669;DHT22;59898;52.786;6.892;2023-10-31T16:28:20;11.90;90.90
52669;DHT22;59898;52.786;6.892;2023-10-31T16:31:42;11.90;91.00
52669;DHT22;59898;52.786;6.892;2023-10-31T16:35:04;11.80;91.10
52669;DHT22;59898;52.786;6.892;2023-10-31T16:38:25;11.80;91.10
52669;DHT22;59898;52.786;6.892;2023-10-31T16:41:46;11.80;91.30
52669;DHT22;59898;52.786;6.892;2023-10-31T16:45:07;11.80;91.40
52669;DHT22;59898;52.786;6.892;2023-10-31T16:48:28;11.80;91.40
52669;DHT22;59898;52.786;6.892;2023-10-31T16:51:50;11.70;91.50
52669;DHT22;59898;52.786;6.892;2023-10-31T16:55:10;11.70;91.60
52669;DHT22;59898;52.786;6.892;2023-10-31T16:58:31;11.70;91.80
52669;DHT22;59898;52.786;6.892;2023-10-31T17:01:52;11.70;92.00
52669;DHT22;59898;52.786;6.892;2023-10-31T17:05:12;11.70;92.20
52669;DHT22;59898;52.786;6.892;2023-10-31T17:08:35;11.60;92.60
52669;DHT22;59898;52.786;6.892;2023-10-31T17:11:56;11.50;92.90
52669;DHT22;59898;52.786;6.892;2023-10-31T17:15:16;11.40;93.70
52669;DHT22;59898;52.786;6.892;2023-10-31T17:18:37;11.40;94.00
52669;DHT22;59898;52.786;6.892;2023-10-31T17:21:58;11.30;94.50
52669;DHT22;59898;52.786;6.892;2023-10-31T17:25:19;11.20;95.00
52669;DHT22;59898;52.786;6.892;2023-10-31T17:28:40;11.20;94.80
52669;DHT22;59898;52.786;6.892;2023-10-31T17:32:00;11.20;94.50
52669;DHT22;59898;52.786;6.892;2023-10-31T17:35:21;11.20;94.70
52669;DHT22;59898;52.786;6.892;2023-10-31T17:38:41;11.20;94.50
52669;DHT22;59898;52.786;6.892;2023-10-31T17:42:02;11.20;94.60
52669;DHT22;59898;52.786;6.892;2023-10-31T17:45:23;11.20;94.40
52669;DHT22;59898;52.786;6.892;2023-10-31T17:48:44;11.20;94.40
52669;DHT22;59898;52.786;6.892;2023-10-31T17:52:06;11.20;94.10
52669;DHT22;59898;52.786;6.892;2023-10-31T17:55:26;11.20;94.10
52669;DHT22;59898;52.786;6.892;2023-10-31T17:58:47;11.20;94.70
52669;DHT22;59898;52.786;6.892;2023-10-31T18:02:07;11.10;94.40
52669;DHT22;59898;52.786;6.892;2023-10-31T18:05:28;11.10;94.90
52669;DHT22;59898;52.786;6.892;2023-10-31T18:08:49;11.10;94.80
52669;DHT22;59898;52.786;6.892;2023-10-31T18:12:10;11.10;95.00
52669;DHT22;59898;52.786;6.892;2023-10-31T18:15:33;11.10;95.10
52669;DHT22;59898;52.786;6.892;2023-10-31T18:18:53;11.10;96.10
52669;DHT22;59898;52.786;6.892;2023-10-31T18:22:14;11.10;95.60
52669;DHT22;59898;52.786;6.892;2023-10-31T18:25:34;11.10;95.70
52669;DHT22;59898;52.786;6.892;2023-10-31T18:28:55;11.10;95.70
52669;DHT22;59898;52.786;6.892;2023-10-31T18:32:15;11.10;95.80
52669;DHT22;59898;52.786;6.892;2023-10-31T18:35:37;11.10;95.90
52669;DHT22;59898;52.786;6.892;2023-10-31T18:38:58;11.10;96.20
52669;DHT22;59898;52.786;6.892;2023-10-31T18:42:20;11.10;96.30
52669;DHT22;59898;52.786;6.892;2023-10-31T18:45:41;11.00;96.30
52669;DHT22;59898;52.786;6.892;2023-10-31T18:49:01;11.00;96.40
52669;DHT22;59898;52.786;6.892;2023-10-31T18:52:22;11.00;96.40
52669;DHT22;59898;52.786;6.892;2023-10-31T18:55:42;11.00;96.50
52669;DHT22;59898;52.786;6.892;2023-10-31T18:59:03;11.00;96.40
52669;DHT22;59898;52.786;6.892;2023-10-31T19:02:24;11.10;96.40
52669;DHT22;59898;52.786;6.892;2023-10-31T19:05:44;11.10;96.30
52669;DHT22;59898;52.786;6.892;2023-10-31T19:09:05;11.10;96.30
52669;DHT22;59898;52.786;6.892;2023-10-31T19:12:26;11.10;96.20
52669;DHT22;59898;52.786;6.892;2023-10-31T19:15:46;11.10;96.30
52669;DHT22;59898;52.786;6.892;2023-10-31T19:19:07;11.10;96.40
52669;DHT22;59898;52.786;6.892;2023-10-31T19:22:28;11.20;96.50
52669;DHT22;59898;52.786;6.892;2023-10-31T19:25:48;11.20;96.50
52669;DHT22;59898;52.786;6.892;2023-10-31T19:29:09;11.20;96.50
52669;DHT22;59898;52.786;6.892;2023-10-31T19:32:29;11.20;96.50
52669;DHT22;59898;52.786;6.892;2023-10-31T19:35:50;11.20;96.40
52669;DHT22;59898;52.786;6.892;2023-10-31T19:39:11;11.20;96.40
52669;DHT22;59898;52.786;6.892;2023-10-31T19:42:31;11.20;96.40
52669;DHT22;59898;52.786;6.892;2023-10-31T19:45:52;11.20;96.40
52669;DHT22;59898;52.786;6.892;2023-10-31T19:49:13;11.10;96.30
52669;DHT22;59898;52.786;6.892;2023-10-31T19:52:34;11.10;96.30
52669;DHT22;59898;52.786;6.892;2023-10-31T19:55:54;11.10;96.40
52669;DHT22;59898;52.786;6.892;2023-10-31T19:59:15;11.10;96.40
52669;DHT22;59898;52.786;6.892;2023-10-31T20:02:36;11.00;96.50
52669;DHT22;59898;52.786;6.892;2023-10-31T20:05:56;10.90;96.90
52669;DHT22;59898;52.786;6.892;2023-10-31T20:09:17;10.80;96.80
52669;DHT22;59898;52.786;6.892;2023-10-31T20:12:37;10.80;96.80
52669;DHT22;59898;52.786;6.892;2023-10-31T20:15:58;10.80;96.80
52669;DHT22;59898;52.786;6.892;2023-10-31T20:19:18;10.80;96.90
52669;DHT22;59898;52.786;6.892;2023-10-31T20:22:39;10.80;96.90
52669;DHT22;59898;52.786;6.892;2023-10-31T20:25:59;10.90;96.80
52669;DHT22;59898;52.786;6.892;2023-10-31T20:29:20;10.90;96.70
52669;DHT22;59898;52.786;6.892;2023-10-31T20:32:40;10.80;96.70
52669;DHT22;59898;52.786;6.892;2023-10-31T20:36:02;10.80;96.80
52669;DHT22;59898;52.786;6.892;2023-10-31T20:39:23;10.80;96.80
52669;DHT22;59898;52.786;6.892;2023-10-31T20:42:43;10.80;96.90
52669;DHT22;59898;52.786;6.892;2023-10-31T20:46:04;10.80;96.80
52669;DHT22;59898;52.786;6.892;2023-10-31T20:49:24;10.70;96.70
52669;DHT22;59898;52.786;6.892;2023-10-31T20:52:45;10.70;96.80
52669;DHT22;59898;52.786;6.892;2023-10-31T20:56:07;10.70;96.80
52669;DHT22;59898;52.786;6.892;2023-10-31T20:59:28;10.70;96.80
52669;DHT22;59898;52.786;6.892;2023-10-31T21:02:49;10.70;96.50
52669;DHT22;59898;52.786;6.892;2023-10-31T21:06:10;10.70;96.60
52669;DHT22;59898;52.786;6.892;2023-10-31T21:09:30;10.70;96.60